Tasman — ZDKI2 — position and weather

sailwx.info

Track history (hours):
 
Tides and Currents Weather Stations Pressure Air Temp Water Temp Dewpoint Dewpoint Depression Visibility Wind Speed Wind Dir Waves Ship Positions

Tasman

Last reported at 2017-Mar-26 03:09 UTC. Time now 2017-Mar-26 07:30 UTC.
Position N 38°21' E 014°47'.

Length 90 m; draft 4 m.

Type: Ship. MMSI: 23617000.

Date/timePositionNaut miles runAvg speedWind from/ knotsBaromVisibWave heightAir tempDewpointWater temp
2017-Mar-26 03:09N 38°21' E 014°47'711.9
2017-Mar-26 02:31N 38°20' E 014°56'1212.0
2017-Mar-26 01:33N 38°20' E 015°11'1211.8
2017-Mar-26 00:33N 38°20' E 015°26'1111.2
2017-Mar-25 23:33N 38°18' E 015°40'9 8.7
2017-Mar-25 22:33N 38°10' E 015°37'1010.1
2017-Mar-25 21:33N 37°59' E 015°36'1111.0
2017-Mar-25 20:33N 37°51' E 015°46'1211.4
2017-Mar-25 19:32N 37°49' E 015°60'14611.3
2017-Mar-25 06:33N 37°09' E 018°58'248 9.8
2017-Mar-24 05:22N 37°35' E 024°08'1212.0
2017-Mar-24 04:24N 37°44' E 024°17'1011.8
2017-Mar-24 03:33N 37°50' E 024°27'  
Track history (hours):
 
Tides and Currents Weather Stations Pressure Air Temp Water Temp Dewpoint Dewpoint Depression Visibility Wind Speed Wind Dir Waves Ship Positions

Tasman

Last reported at 2017-Mar-26 03:09 UTC. Time now 2017-Mar-26 07:30 UTC.
Position N 38°21' E 014°47'.

Length 90 m; draft 4 m.

Type: Ship. MMSI: 23617000.

Date/timePositionNaut miles runAvg speedWind from/ knotsBaromVisibWave heightAir tempDewpointWater temp
2017-Mar-26 03:09N 38°21' E 014°47'711.9
2017-Mar-26 02:31N 38°20' E 014°56'1212.0
2017-Mar-26 01:33N 38°20' E 015°11'1211.8
2017-Mar-26 00:33N 38°20' E 015°26'1111.2
2017-Mar-25 23:33N 38°18' E 015°40'9 8.7
2017-Mar-25 22:33N 38°10' E 015°37'1010.1
2017-Mar-25 21:33N 37°59' E 015°36'1111.0
2017-Mar-25 20:33N 37°51' E 015°46'1211.4
2017-Mar-25 19:32N 37°49' E 015°60'14611.3
2017-Mar-25 06:33N 37°09' E 018°58'248 9.8
2017-Mar-24 05:22N 37°35' E 024°08'1212.0
2017-Mar-24 04:24N 37°44' E 024°17'1011.8
2017-Mar-24 03:33N 37°50' E 024°27'  

Dump ship's entire track history